sensor_id;sensor_type;location;lat;lon;timestamp;P1;durP1;ratioP1;P2;durP2;ratioP2
25846;SDS011;13676;50.168;8.568;2023-06-14T00:01:43;8.00;;;2.97;;
25846;SDS011;13676;50.168;8.568;2023-06-14T00:04:11;7.97;;;2.83;;
25846;SDS011;13676;50.168;8.568;2023-06-14T00:06:37;4.82;;;3.17;;
25846;SDS011;13676;50.168;8.568;2023-06-14T00:09:03;5.32;;;2.83;;
25846;SDS011;13676;50.168;8.568;2023-06-14T00:11:29;3.93;;;2.70;;
25846;SDS011;13676;50.168;8.568;2023-06-14T00:13:55;4.18;;;2.83;;
25846;SDS011;13676;50.168;8.568;2023-06-14T00:16:21;3.70;;;2.63;;
25846;SDS011;13676;50.168;8.568;2023-06-14T00:18:46;6.47;;;3.25;;
25846;SDS011;13676;50.168;8.568;2023-06-14T00:21:12;3.83;;;2.75;;
25846;SDS011;13676;50.168;8.568;2023-06-14T00:23:37;3.95;;;2.58;;
25846;SDS011;13676;50.168;8.568;2023-06-14T00:26:03;4.43;;;2.95;;
25846;SDS011;13676;50.168;8.568;2023-06-14T00:28:29;9.52;;;2.80;;
25846;SDS011;13676;50.168;8.568;2023-06-14T00:30:54;4.80;;;2.80;;
25846;SDS011;13676;50.168;8.568;2023-06-14T00:33:19;3.45;;;2.58;;
25846;SDS011;13676;50.168;8.568;2023-06-14T00:35:45;6.07;;;3.22;;
25846;SDS011;13676;50.168;8.568;2023-06-14T00:38:10;4.10;;;2.80;;
25846;SDS011;13676;50.168;8.568;2023-06-14T00:40:35;9.65;;;2.92;;
25846;SDS011;13676;50.168;8.568;2023-06-14T00:43:01;4.85;;;2.58;;
25846;SDS011;13676;50.168;8.568;2023-06-14T00:45:26;7.82;;;3.33;;
25846;SDS011;13676;50.168;8.568;2023-06-14T00:47:52;4.85;;;2.63;;
25846;SDS011;13676;50.168;8.568;2023-06-14T00:50:20;4.78;;;2.40;;
25846;SDS011;13676;50.168;8.568;2023-06-14T00:52:46;4.72;;;2.80;;
25846;SDS011;13676;50.168;8.568;2023-06-14T00:55:11;4.47;;;3.28;;
25846;SDS011;13676;50.168;8.568;2023-06-14T00:57:37;5.68;;;3.33;;
25846;SDS011;13676;50.168;8.568;2023-06-14T01:00:06;5.57;;;2.53;;
25846;SDS011;13676;50.168;8.568;2023-06-14T01:02:35;6.88;;;2.75;;
25846;SDS011;13676;50.168;8.568;2023-06-14T01:05:02;5.78;;;3.00;;
25846;SDS011;13676;50.168;8.568;2023-06-14T01:13:02;6.07;;;2.92;;
25846;SDS011;13676;50.168;8.568;2023-06-14T01:15:34;4.38;;;2.50;;
25846;SDS011;13676;50.168;8.568;2023-06-14T01:18:00;5.43;;;3.10;;
25846;SDS011;13676;50.168;8.568;2023-06-14T01:23:03;5.78;;;3.17;;
25846;SDS011;13676;50.168;8.568;2023-06-14T01:25:28;8.57;;;2.67;;
25846;SDS011;13676;50.168;8.568;2023-06-14T01:27:58;6.65;;;3.30;;
25846;SDS011;13676;50.168;8.568;2023-06-14T01:30:26;4.93;;;3.10;;
25846;SDS011;13676;50.168;8.568;2023-06-14T01:32:52;3.55;;;2.88;;
25846;SDS011;13676;50.168;8.568;2023-06-14T01:35:19;4.43;;;3.05;;
25846;SDS011;13676;50.168;8.568;2023-06-14T01:37:46;3.42;;;2.75;;
25846;SDS011;13676;50.168;8.568;2023-06-14T01:40:12;5.18;;;2.55;;
25846;SDS011;13676;50.168;8.568;2023-06-14T01:42:39;8.40;;;3.08;;
25846;SDS011;13676;50.168;8.568;2023-06-14T01:45:05;5.90;;;3.15;;
25846;SDS011;13676;50.168;8.568;2023-06-14T01:47:32;6.95;;;3.10;;
25846;SDS011;13676;50.168;8.568;2023-06-14T01:49:58;7.60;;;3.03;;
25846;SDS011;13676;50.168;8.568;2023-06-14T01:52:23;6.07;;;3.20;;
25846;SDS011;13676;50.168;8.568;2023-06-14T01:54:49;3.70;;;2.60;;
25846;SDS011;13676;50.168;8.568;2023-06-14T01:57:15;5.13;;;2.95;;
25846;SDS011;13676;50.168;8.568;2023-06-14T01:59:41;4.40;;;2.65;;
25846;SDS011;13676;50.168;8.568;2023-06-14T02:02:06;3.50;;;2.95;;
25846;SDS011;13676;50.168;8.568;2023-06-14T02:04:31;3.85;;;2.70;;
25846;SDS011;13676;50.168;8.568;2023-06-14T02:06:57;3.22;;;2.13;;
25846;SDS011;13676;50.168;8.568;2023-06-14T02:09:22;4.05;;;2.40;;
25846;SDS011;13676;50.168;8.568;2023-06-14T02:11:48;4.60;;;3.05;;
25846;SDS011;13676;50.168;8.568;2023-06-14T02:14:14;4.72;;;2.72;;
25846;SDS011;13676;50.168;8.568;2023-06-14T02:16:39;6.60;;;2.35;;
25846;SDS011;13676;50.168;8.568;2023-06-14T02:19:05;5.75;;;2.72;;
25846;SDS011;13676;50.168;8.568;2023-06-14T02:21:30;6.78;;;2.90;;
25846;SDS011;13676;50.168;8.568;2023-06-14T02:23:56;5.45;;;3.00;;
25846;SDS011;13676;50.168;8.568;2023-06-14T02:26:21;5.13;;;3.17;;
25846;SDS011;13676;50.168;8.568;2023-06-14T02:28:47;7.30;;;2.70;;
25846;SDS011;13676;50.168;8.568;2023-06-14T02:31:13;6.20;;;2.75;;
25846;SDS011;13676;50.168;8.568;2023-06-14T02:33:38;4.47;;;2.55;;
25846;SDS011;13676;50.168;8.568;2023-06-14T02:36:04;6.07;;;2.53;;
25846;SDS011;13676;50.168;8.568;2023-06-14T02:38:30;3.50;;;2.50;;
25846;SDS011;13676;50.168;8.568;2023-06-14T02:40:55;5.25;;;2.67;;
25846;SDS011;13676;50.168;8.568;2023-06-14T02:43:21;4.95;;;2.72;;
25846;SDS011;13676;50.168;8.568;2023-06-14T02:45:46;11.20;;;2.85;;
25846;SDS011;13676;50.168;8.568;2023-06-14T02:48:12;12.98;;;2.97;;
25846;SDS011;13676;50.168;8.568;2023-06-14T02:50:37;7.35;;;2.53;;
25846;SDS011;13676;50.168;8.568;2023-06-14T02:53:02;7.45;;;2.88;;
25846;SDS011;13676;50.168;8.568;2023-06-14T02:55:28;8.90;;;2.90;;
25846;SDS011;13676;50.168;8.568;2023-06-14T02:57:54;3.55;;;2.55;;
25846;SDS011;13676;50.168;8.568;2023-06-14T03:00:19;4.15;;;2.72;;
25846;SDS011;13676;50.168;8.568;2023-06-14T03:02:45;8.68;;;2.45;;
25846;SDS011;13676;50.168;8.568;2023-06-14T03:05:10;7.57;;;2.70;;
25846;SDS011;13676;50.168;8.568;2023-06-14T03:07:36;4.45;;;2.95;;
25846;SDS011;13676;50.168;8.568;2023-06-14T03:10:06;5.68;;;2.90;;
25846;SDS011;13676;50.168;8.568;2023-06-14T03:12:33;4.13;;;2.70;;
25846;SDS011;13676;50.168;8.568;2023-06-14T03:14:58;6.93;;;2.90;;
25846;SDS011;13676;50.168;8.568;2023-06-14T03:17:27;7.15;;;3.20;;
25846;SDS011;13676;50.168;8.568;2023-06-14T03:19:54;3.65;;;2.90;;
25846;SDS011;13676;50.168;8.568;2023-06-14T03:22:20;7.35;;;3.08;;
25846;SDS011;13676;50.168;8.568;2023-06-14T03:24:46;7.88;;;3.58;;
25846;SDS011;13676;50.168;8.568;2023-06-14T03:27:12;9.73;;;3.55;;
25846;SDS011;13676;50.168;8.568;2023-06-14T03:29:37;6.05;;;3.33;;
25846;SDS011;13676;50.168;8.568;2023-06-14T03:32:03;4.78;;;2.85;;
25846;SDS011;13676;50.168;8.568;2023-06-14T03:34:28;7.90;;;3.25;;
25846;SDS011;13676;50.168;8.568;2023-06-14T03:36:54;5.93;;;3.05;;
25846;SDS011;13676;50.168;8.568;2023-06-14T03:39:19;9.20;;;3.33;;
25846;SDS011;13676;50.168;8.568;2023-06-14T03:41:45;9.38;;;2.97;;
25846;SDS011;13676;50.168;8.568;2023-06-14T03:44:11;7.75;;;3.15;;
25846;SDS011;13676;50.168;8.568;2023-06-14T03:46:36;3.92;;;3.15;;
25846;SDS011;13676;50.168;8.568;2023-06-14T03:49:01;7.43;;;3.47;;
25846;SDS011;13676;50.168;8.568;2023-06-14T03:51:28;5.78;;;3.30;;
25846;SDS011;13676;50.168;8.568;2023-06-14T03:53:55;10.63;;;3.70;;
25846;SDS011;13676;50.168;8.568;2023-06-14T03:56:21;5.55;;;3.33;;
25846;SDS011;13676;50.168;8.568;2023-06-14T03:58:46;5.68;;;3.20;;
25846;SDS011;13676;50.168;8.568;2023-06-14T04:01:15;4.57;;;2.60;;
25846;SDS011;13676;50.168;8.568;2023-06-14T04:03:40;8.57;;;3.22;;
25846;SDS011;13676;50.168;8.568;2023-06-14T04:06:06;11.70;;;3.65;;
25846;SDS011;13676;50.168;8.568;2023-06-14T04:08:32;7.55;;;3.55;;
25846;SDS011;13676;50.168;8.568;2023-06-14T04:10:58;6.93;;;2.80;;
25846;SDS011;13676;50.168;8.568;2023-06-14T04:13:23;4.57;;;3.05;;
25846;SDS011;13676;50.168;8.568;2023-06-14T04:15:48;7.03;;;3.40;;
25846;SDS011;13676;50.168;8.568;2023-06-14T04:18:14;7.70;;;3.30;;
25846;SDS011;13676;50.168;8.568;2023-06-14T04:20:39;4.05;;;2.83;;
25846;SDS011;13676;50.168;8.568;2023-06-14T04:23:15;3.97;;;3.17;;
25846;SDS011;13676;50.168;8.568;2023-06-14T04:28:10;9.15;;;3.50;;
25846;SDS011;13676;50.168;8.568;2023-06-14T04:30:36;18.35;;;3.97;;
25846;SDS011;13676;50.168;8.568;2023-06-14T04:33:06;4.97;;;2.83;;
25846;SDS011;13676;50.168;8.568;2023-06-14T04:35:32;4.55;;;3.00;;
25846;SDS011;13676;50.168;8.568;2023-06-14T04:37:58;5.05;;;2.72;;
25846;SDS011;13676;50.168;8.568;2023-06-14T04:40:24;6.85;;;2.78;;
25846;SDS011;13676;50.168;8.568;2023-06-14T04:42:49;5.45;;;2.88;;
25846;SDS011;13676;50.168;8.568;2023-06-14T04:45:15;9.90;;;3.22;;
25846;SDS011;13676;50.168;8.568;2023-06-14T04:47:41;7.45;;;2.60;;
25846;SDS011;13676;50.168;8.568;2023-06-14T04:50:07;8.48;;;2.95;;
25846;SDS011;13676;50.168;8.568;2023-06-14T04:52:32;8.15;;;3.00;;
25846;SDS011;13676;50.168;8.568;2023-06-14T04:57:26;7.33;;;3.10;;
25846;SDS011;13676;50.168;8.568;2023-06-14T04:59:52;7.80;;;2.70;;
25846;SDS011;13676;50.168;8.568;2023-06-14T05:02:23;4.90;;;2.75;;
25846;SDS011;13676;50.168;8.568;2023-06-14T05:04:49;3.65;;;2.40;;
25846;SDS011;13676;50.168;8.568;2023-06-14T05:07:15;4.95;;;2.50;;
25846;SDS011;13676;50.168;8.568;2023-06-14T05:09:41;4.32;;;2.72;;
25846;SDS011;13676;50.168;8.568;2023-06-14T05:12:06;7.30;;;2.70;;
25846;SDS011;13676;50.168;8.568;2023-06-14T05:14:35;6.15;;;3.05;;
25846;SDS011;13676;50.168;8.568;2023-06-14T05:17:01;4.10;;;2.40;;
25846;SDS011;13676;50.168;8.568;2023-06-14T05:19:27;5.43;;;2.57;;
25846;SDS011;13676;50.168;8.568;2023-06-14T05:21:53;5.60;;;2.70;;
25846;SDS011;13676;50.168;8.568;2023-06-14T05:24:18;5.10;;;2.80;;
25846;SDS011;13676;50.168;8.568;2023-06-14T05:26:43;8.10;;;2.80;;
25846;SDS011;13676;50.168;8.568;2023-06-14T05:29:09;4.55;;;2.33;;
25846;SDS011;13676;50.168;8.568;2023-06-14T05:31:34;5.82;;;2.80;;
25846;SDS011;13676;50.168;8.568;2023-06-14T05:34:00;4.90;;;2.60;;
25846;SDS011;13676;50.168;8.568;2023-06-14T05:36:25;5.97;;;2.80;;
25846;SDS011;13676;50.168;8.568;2023-06-14T05:38:52;5.93;;;2.95;;
25846;SDS011;13676;50.168;8.568;2023-06-14T05:41:23;4.63;;;2.78;;
25846;SDS011;13676;50.168;8.568;2023-06-14T05:43:52;7.18;;;2.92;;
25846;SDS011;13676;50.168;8.568;2023-06-14T05:46:19;12.20;;;3.30;;
25846;SDS011;13676;50.168;8.568;2023-06-14T05:48:47;4.63;;;2.92;;
25846;SDS011;13676;50.168;8.568;2023-06-14T05:51:13;6.22;;;2.67;;
25846;SDS011;13676;50.168;8.568;2023-06-14T05:53:39;6.75;;;2.95;;
25846;SDS011;13676;50.168;8.568;2023-06-14T05:56:05;9.18;;;2.72;;
25846;SDS011;13676;50.168;8.568;2023-06-14T05:58:30;3.22;;;2.45;;
25846;SDS011;13676;50.168;8.568;2023-06-14T06:00:56;5.25;;;2.50;;
25846;SDS011;13676;50.168;8.568;2023-06-14T06:03:22;7.80;;;3.35;;
25846;SDS011;13676;50.168;8.568;2023-06-14T06:05:47;7.90;;;3.22;;
25846;SDS011;13676;50.168;8.568;2023-06-14T06:08:14;7.15;;;3.05;;
25846;SDS011;13676;50.168;8.568;2023-06-14T06:13:06;5.15;;;2.75;;
25846;SDS011;13676;50.168;8.568;2023-06-14T06:15:32;12.07;;;2.25;;
25846;SDS011;13676;50.168;8.568;2023-06-14T06:17:57;5.57;;;2.47;;
25846;SDS011;13676;50.168;8.568;2023-06-14T06:20:23;10.90;;;3.00;;
25846;SDS011;13676;50.168;8.568;2023-06-14T06:22:52;9.10;;;2.70;;
25846;SDS011;13676;50.168;8.568;2023-06-14T06:25:18;4.03;;;2.80;;
25846;SDS011;13676;50.168;8.568;2023-06-14T06:27:44;3.72;;;2.45;;
25846;SDS011;13676;50.168;8.568;2023-06-14T06:30:13;4.90;;;2.50;;
25846;SDS011;13676;50.168;8.568;2023-06-14T06:32:38;8.25;;;3.00;;
25846;SDS011;13676;50.168;8.568;2023-06-14T06:35:04;6.63;;;2.50;;
25846;SDS011;13676;50.168;8.568;2023-06-14T06:37:31;11.30;;;2.97;;
25846;SDS011;13676;50.168;8.568;2023-06-14T06:39:56;8.70;;;2.80;;
25846;SDS011;13676;50.168;8.568;2023-06-14T06:42:22;5.90;;;2.10;;
25846;SDS011;13676;50.168;8.568;2023-06-14T06:44:47;4.00;;;2.10;;
25846;SDS011;13676;50.168;8.568;2023-06-14T06:47:12;14.05;;;2.58;;
25846;SDS011;13676;50.168;8.568;2023-06-14T06:49:37;7.90;;;2.70;;
25846;SDS011;13676;50.168;8.568;2023-06-14T06:52:06;8.73;;;2.60;;
25846;SDS011;13676;50.168;8.568;2023-06-14T06:54:32;10.50;;;2.53;;
25846;SDS011;13676;50.168;8.568;2023-06-14T06:56:58;6.82;;;2.80;;
25846;SDS011;13676;50.168;8.568;2023-06-14T06:59:23;8.38;;;2.50;;
25846;SDS011;13676;50.168;8.568;2023-06-14T07:01:49;6.97;;;2.70;;
25846;SDS011;13676;50.168;8.568;2023-06-14T07:04:15;5.50;;;2.45;;
25846;SDS011;13676;50.168;8.568;2023-06-14T07:06:41;5.90;;;2.30;;
25846;SDS011;13676;50.168;8.568;2023-06-14T07:09:07;7.15;;;2.28;;
25846;SDS011;13676;50.168;8.568;2023-06-14T07:11:37;2.85;;;2.10;;
25846;SDS011;13676;50.168;8.568;2023-06-14T07:14:03;5.55;;;2.20;;
25846;SDS011;13676;50.168;8.568;2023-06-14T07:16:28;3.85;;;2.15;;
25846;SDS011;13676;50.168;8.568;2023-06-14T07:18:53;4.78;;;1.88;;
25846;SDS011;13676;50.168;8.568;2023-06-14T07:21:19;3.88;;;2.30;;
25846;SDS011;13676;50.168;8.568;2023-06-14T07:23:44;4.38;;;1.98;;
25846;SDS011;13676;50.168;8.568;2023-06-14T07:26:10;10.70;;;2.40;;
25846;SDS011;13676;50.168;8.568;2023-06-14T07:28:35;7.88;;;2.65;;
25846;SDS011;13676;50.168;8.568;2023-06-14T07:31:01;4.85;;;1.70;;
25846;SDS011;13676;50.168;8.568;2023-06-14T07:33:26;6.60;;;2.10;;
25846;SDS011;13676;50.168;8.568;2023-06-14T07:35:51;3.90;;;2.10;;
25846;SDS011;13676;50.168;8.568;2023-06-14T07:38:17;5.20;;;2.33;;
25846;SDS011;13676;50.168;8.568;2023-06-14T07:40:43;5.38;;;2.58;;
25846;SDS011;13676;50.168;8.568;2023-06-14T07:43:08;6.05;;;1.95;;
25846;SDS011;13676;50.168;8.568;2023-06-14T07:45:34;9.02;;;2.00;;
25846;SDS011;13676;50.168;8.568;2023-06-14T07:47:59;4.32;;;2.03;;
25846;SDS011;13676;50.168;8.568;2023-06-14T07:50:24;4.05;;;1.90;;
25846;SDS011;13676;50.168;8.568;2023-06-14T07:52:50;2.80;;;1.77;;
25846;SDS011;13676;50.168;8.568;2023-06-14T07:55:15;3.70;;;1.90;;
25846;SDS011;13676;50.168;8.568;2023-06-14T07:57:41;4.80;;;1.90;;
25846;SDS011;13676;50.168;8.568;2023-06-14T08:00:07;2.53;;;1.80;;
25846;SDS011;13676;50.168;8.568;2023-06-14T08:02:35;2.20;;;1.73;;
25846;SDS011;13676;50.168;8.568;2023-06-14T08:05:00;9.80;;;2.25;;
25846;SDS011;13676;50.168;8.568;2023-06-14T08:07:26;7.32;;;2.38;;
25846;SDS011;13676;50.168;8.568;2023-06-14T08:09:51;3.67;;;1.77;;
25846;SDS011;13676;50.168;8.568;2023-06-14T08:12:16;5.22;;;1.70;;
25846;SDS011;13676;50.168;8.568;2023-06-14T08:14:42;6.55;;;1.80;;
25846;SDS011;13676;50.168;8.568;2023-06-14T08:17:07;4.78;;;1.30;;
25846;SDS011;13676;50.168;8.568;2023-06-14T08:19:33;6.25;;;1.60;;
25846;SDS011;13676;50.168;8.568;2023-06-14T08:21:59;1.15;;;1.05;;
25846;SDS011;13676;50.168;8.568;2023-06-14T08:24:25;8.10;;;1.58;;
25846;SDS011;13676;50.168;8.568;2023-06-14T08:26:52;2.25;;;0.95;;
25846;SDS011;13676;50.168;8.568;2023-06-14T08:29:18;1.70;;;1.10;;
25846;SDS011;13676;50.168;8.568;2023-06-14T08:31:43;3.55;;;1.50;;
25846;SDS011;13676;50.168;8.568;2023-06-14T08:34:09;2.65;;;1.45;;
25846;SDS011;13676;50.168;8.568;2023-06-14T08:36:35;1.70;;;1.25;;
25846;SDS011;13676;50.168;8.568;2023-06-14T08:39:01;3.80;;;1.67;;
25846;SDS011;13676;50.168;8.568;2023-06-14T08:41:27;3.45;;;1.25;;
25846;SDS011;13676;50.168;8.568;2023-06-14T08:43:54;1.60;;;1.08;;
25846;SDS011;13676;50.168;8.568;2023-06-14T08:46:20;1.85;;;1.23;;
25846;SDS011;13676;50.168;8.568;2023-06-14T08:48:47;10.02;;;1.25;;
25846;SDS011;13676;50.168;8.568;2023-06-14T08:51:20;4.15;;;1.52;;
25846;SDS011;13676;50.168;8.568;2023-06-14T08:53:54;7.05;;;1.10;;
25846;SDS011;13676;50.168;8.568;2023-06-14T08:56:26;6.80;;;1.40;;
25846;SDS011;13676;50.168;8.568;2023-06-14T08:58:53;2.03;;;1.42;;
25846;SDS011;13676;50.168;8.568;2023-06-14T09:01:18;1.60;;;1.30;;
25846;SDS011;13676;50.168;8.568;2023-06-14T09:03:44;2.50;;;1.25;;
25846;SDS011;13676;50.168;8.568;2023-06-14T09:06:10;1.63;;;1.13;;
25846;SDS011;13676;50.168;8.568;2023-06-14T09:08:47;1.90;;;1.10;;
25846;SDS011;13676;50.168;8.568;2023-06-14T09:11:14;2.10;;;1.40;;
25846;SDS011;13676;50.168;8.568;2023-06-14T09:13:41;5.35;;;1.67;;
25846;SDS011;13676;50.168;8.568;2023-06-14T09:16:07;1.92;;;1.20;;
25846;SDS011;13676;50.168;8.568;2023-06-14T09:21:01;3.38;;;1.20;;
25846;SDS011;13676;50.168;8.568;2023-06-14T09:23:27;6.10;;;0.90;;
25846;SDS011;13676;50.168;8.568;2023-06-14T09:25:52;3.63;;;0.80;;
25846;SDS011;13676;50.168;8.568;2023-06-14T09:28:17;3.35;;;1.15;;
25846;SDS011;13676;50.168;8.568;2023-06-14T09:30:45;3.40;;;1.20;;
25846;SDS011;13676;50.168;8.568;2023-06-14T09:33:16;1.42;;;0.95;;
25846;SDS011;13676;50.168;8.568;2023-06-14T09:35:42;2.03;;;1.20;;
25846;SDS011;13676;50.168;8.568;2023-06-14T09:38:10;1.88;;;1.30;;
25846;SDS011;13676;50.168;8.568;2023-06-14T09:40:36;1.70;;;1.10;;
25846;SDS011;13676;50.168;8.568;2023-06-14T09:43:03;2.85;;;1.00;;
25846;SDS011;13676;50.168;8.568;2023-06-14T09:45:30;1.95;;;1.10;;
25846;SDS011;13676;50.168;8.568;2023-06-14T09:47:57;3.15;;;1.00;;
25846;SDS011;13676;50.168;8.568;2023-06-14T09:50:23;1.67;;;1.30;;
25846;SDS011;13676;50.168;8.568;2023-06-14T09:52:48;1.50;;;1.10;;
25846;SDS011;13676;50.168;8.568;2023-06-14T09:55:18;1.35;;;1.10;;
25846;SDS011;13676;50.168;8.568;2023-06-14T09:57:44;3.13;;;1.25;;
25846;SDS011;13676;50.168;8.568;2023-06-14T10:00:10;8.07;;;1.42;;
25846;SDS011;13676;50.168;8.568;2023-06-14T10:05:07;7.72;;;1.20;;
25846;SDS011;13676;50.168;8.568;2023-06-14T10:10:33;5.05;;;1.30;;
25846;SDS011;13676;50.168;8.568;2023-06-14T10:12:58;2.35;;;1.27;;
25846;SDS011;13676;50.168;8.568;2023-06-14T10:15:28;3.15;;;1.52;;
25846;SDS011;13676;50.168;8.568;2023-06-14T10:18:07;3.90;;;1.35;;
25846;SDS011;13676;50.168;8.568;2023-06-14T10:23:06;1.40;;;1.30;;
25846;SDS011;13676;50.168;8.568;2023-06-14T10:25:37;2.20;;;1.40;;
25846;SDS011;13676;50.168;8.568;2023-06-14T10:28:18;1.95;;;1.30;;
25846;SDS011;13676;50.168;8.568;2023-06-14T10:31:04;6.82;;;1.67;;
25846;SDS011;13676;50.168;8.568;2023-06-14T10:33:31;2.33;;;1.50;;
25846;SDS011;13676;50.168;8.568;2023-06-14T10:36:10;2.53;;;1.27;;
25846;SDS011;13676;50.168;8.568;2023-06-14T10:38:36;2.35;;;1.40;;
25846;SDS011;13676;50.168;8.568;2023-06-14T10:41:03;5.18;;;1.80;;
25846;SDS011;13676;50.168;8.568;2023-06-14T10:43:29;1.88;;;1.20;;
25846;SDS011;13676;50.168;8.568;2023-06-14T10:48:41;1.45;;;1.27;;
25846;SDS011;13676;50.168;8.568;2023-06-14T10:51:19;1.50;;;1.20;;
25846;SDS011;13676;50.168;8.568;2023-06-14T10:53:49;4.03;;;1.50;;
25846;SDS011;13676;50.168;8.568;2023-06-14T10:58:54;2.80;;;1.70;;
25846;SDS011;13676;50.168;8.568;2023-06-14T11:01:23;3.90;;;1.50;;
25846;SDS011;13676;50.168;8.568;2023-06-14T11:04:00;2.78;;;1.52;;
25846;SDS011;13676;50.168;8.568;2023-06-14T11:06:45;2.47;;;1.33;;
25846;SDS011;13676;50.168;8.568;2023-06-14T11:09:18;6.40;;;1.85;;
25846;SDS011;13676;50.168;8.568;2023-06-14T11:11:45;2.65;;;1.48;;
25846;SDS011;13676;50.168;8.568;2023-06-14T11:14:11;1.73;;;1.45;;
25846;SDS011;13676;50.168;8.568;2023-06-14T11:16:40;2.05;;;1.55;;
25846;SDS011;13676;50.168;8.568;2023-06-14T11:19:06;2.28;;;1.15;;
25846;SDS011;13676;50.168;8.568;2023-06-14T11:21:32;3.22;;;1.52;;
25846;SDS011;13676;50.168;8.568;2023-06-14T11:23:58;4.10;;;1.42;;
25846;SDS011;13676;50.168;8.568;2023-06-14T11:26:28;1.77;;;1.33;;
25846;SDS011;13676;50.168;8.568;2023-06-14T11:28:57;1.80;;;1.30;;
25846;SDS011;13676;50.168;8.568;2023-06-14T11:31:24;1.75;;;1.20;;
25846;SDS011;13676;50.168;8.568;2023-06-14T11:33:53;2.22;;;1.48;;
25846;SDS011;13676;50.168;8.568;2023-06-14T11:38:44;2.40;;;1.20;;
25846;SDS011;13676;50.168;8.568;2023-06-14T11:41:09;3.45;;;1.33;;
25846;SDS011;13676;50.168;8.568;2023-06-14T11:43:34;2.55;;;1.20;;
25846;SDS011;13676;50.168;8.568;2023-06-14T11:46:01;1.83;;;1.07;;
25846;SDS011;13676;50.168;8.568;2023-06-14T11:48:42;1.40;;;1.23;;
25846;SDS011;13676;50.168;8.568;2023-06-14T11:51:07;2.13;;;1.20;;
25846;SDS011;13676;50.168;8.568;2023-06-14T11:53:33;3.15;;;1.23;;
25846;SDS011;13676;50.168;8.568;2023-06-14T11:55:59;1.38;;;1.20;;
25846;SDS011;13676;50.168;8.568;2023-06-14T11:58:25;2.15;;;1.30;;
25846;SDS011;13676;50.168;8.568;2023-06-14T12:00:53;1.67;;;0.82;;
25846;SDS011;13676;50.168;8.568;2023-06-14T12:03:22;1.92;;;1.10;;
25846;SDS011;13676;50.168;8.568;2023-06-14T12:05:49;1.55;;;1.30;;
25846;SDS011;13676;50.168;8.568;2023-06-14T12:08:16;1.17;;;1.08;;
25846;SDS011;13676;50.168;8.568;2023-06-14T12:10:42;1.23;;;1.00;;
25846;SDS011;13676;50.168;8.568;2023-06-14T12:13:08;2.17;;;1.00;;
25846;SDS011;13676;50.168;8.568;2023-06-14T12:15:36;4.35;;;1.20;;
25846;SDS011;13676;50.168;8.568;2023-06-14T12:18:06;4.05;;;1.20;;
25846;SDS011;13676;50.168;8.568;2023-06-14T12:20:33;3.25;;;1.50;;
25846;SDS011;13676;50.168;8.568;2023-06-14T12:23:02;1.52;;;0.95;;
25846;SDS011;13676;50.168;8.568;2023-06-14T12:25:30;2.40;;;1.30;;
25846;SDS011;13676;50.168;8.568;2023-06-14T12:27:57;1.52;;;0.90;;
25846;SDS011;13676;50.168;8.568;2023-06-14T12:30:25;1.67;;;1.10;;
25846;SDS011;13676;50.168;8.568;2023-06-14T12:32:52;1.13;;;1.02;;
25846;SDS011;13676;50.168;8.568;2023-06-14T12:35:17;3.25;;;1.20;;
25846;SDS011;13676;50.168;8.568;2023-06-14T12:37:44;2.03;;;1.20;;
25846;SDS011;13676;50.168;8.568;2023-06-14T12:40:10;5.10;;;0.90;;
25846;SDS011;13676;50.168;8.568;2023-06-14T12:42:36;2.80;;;1.30;;
25846;SDS011;13676;50.168;8.568;2023-06-14T12:45:03;4.90;;;1.60;;
25846;SDS011;13676;50.168;8.568;2023-06-14T12:47:28;1.92;;;1.25;;
25846;SDS011;13676;50.168;8.568;2023-06-14T12:49:54;1.48;;;1.20;;
25846;SDS011;13676;50.168;8.568;2023-06-14T12:52:20;2.38;;;1.30;;
25846;SDS011;13676;50.168;8.568;2023-06-14T12:54:46;3.03;;;1.20;;
25846;SDS011;13676;50.168;8.568;2023-06-14T12:57:12;1.83;;;1.20;;
25846;SDS011;13676;50.168;8.568;2023-06-14T12:59:37;2.28;;;1.25;;
25846;SDS011;13676;50.168;8.568;2023-06-14T13:02:18;2.00;;;1.40;;
25846;SDS011;13676;50.168;8.568;2023-06-14T13:04:45;3.33;;;1.75;;
25846;SDS011;13676;50.168;8.568;2023-06-14T13:07:11;1.95;;;1.27;;
25846;SDS011;13676;50.168;8.568;2023-06-14T13:09:37;1.45;;;0.93;;
25846;SDS011;13676;50.168;8.568;2023-06-14T13:12:02;1.10;;;1.00;;
25846;SDS011;13676;50.168;8.568;2023-06-14T13:14:28;2.55;;;1.20;;
25846;SDS011;13676;50.168;8.568;2023-06-14T13:16:55;2.65;;;1.38;;
25846;SDS011;13676;50.168;8.568;2023-06-14T13:19:20;4.50;;;1.27;;
25846;SDS011;13676;50.168;8.568;2023-06-14T13:21:47;5.78;;;1.60;;
25846;SDS011;13676;50.168;8.568;2023-06-14T13:24:13;5.50;;;1.55;;
25846;SDS011;13676;50.168;8.568;2023-06-14T13:26:38;1.73;;;1.15;;
25846;SDS011;13676;50.168;8.568;2023-06-14T13:29:04;1.95;;;1.20;;
25846;SDS011;13676;50.168;8.568;2023-06-14T13:31:29;4.80;;;1.30;;
25846;SDS011;13676;50.168;8.568;2023-06-14T13:33:55;2.80;;;1.20;;
25846;SDS011;13676;50.168;8.568;2023-06-14T13:36:23;1.10;;;0.90;;
25846;SDS011;13676;50.168;8.568;2023-06-14T13:38:48;3.58;;;1.50;;
25846;SDS011;13676;50.168;8.568;2023-06-14T13:41:13;1.85;;;1.20;;
25846;SDS011;13676;50.168;8.568;2023-06-14T13:43:39;5.63;;;1.20;;
25846;SDS011;13676;50.168;8.568;2023-06-14T13:46:05;2.50;;;1.47;;
25846;SDS011;13676;50.168;8.568;2023-06-14T13:48:31;2.13;;;1.42;;
25846;SDS011;13676;50.168;8.568;2023-06-14T13:50:56;3.97;;;1.42;;
25846;SDS011;13676;50.168;8.568;2023-06-14T13:53:22;3.85;;;1.25;;
25846;SDS011;13676;50.168;8.568;2023-06-14T13:55:47;3.08;;;1.60;;
25846;SDS011;13676;50.168;8.568;2023-06-14T13:58:13;2.65;;;1.25;;
25846;SDS011;13676;50.168;8.568;2023-06-14T14:00:40;1.85;;;1.48;;
25846;SDS011;13676;50.168;8.568;2023-06-14T14:03:05;2.25;;;1.50;;
25846;SDS011;13676;50.168;8.568;2023-06-14T14:05:31;2.95;;;1.30;;
25846;SDS011;13676;50.168;8.568;2023-06-14T14:07:57;2.22;;;1.50;;
25846;SDS011;13676;50.168;8.568;2023-06-14T14:10:24;1.98;;;1.50;;
25846;SDS011;13676;50.168;8.568;2023-06-14T14:12:50;2.27;;;1.47;;
25846;SDS011;13676;50.168;8.568;2023-06-14T14:15:16;4.30;;;1.73;;
25846;SDS011;13676;50.168;8.568;2023-06-14T14:17:43;2.47;;;1.08;;
25846;SDS011;13676;50.168;8.568;2023-06-14T14:20:08;1.45;;;1.17;;
25846;SDS011;13676;50.168;8.568;2023-06-14T14:22:41;1.45;;;1.00;;
25846;SDS011;13676;50.168;8.568;2023-06-14T14:25:07;1.50;;;1.40;;
25846;SDS011;13676;50.168;8.568;2023-06-14T14:27:33;2.58;;;1.30;;
25846;SDS011;13676;50.168;8.568;2023-06-14T14:29:58;3.08;;;1.40;;
25846;SDS011;13676;50.168;8.568;2023-06-14T14:32:24;5.07;;;1.73;;
25846;SDS011;13676;50.168;8.568;2023-06-14T14:34:50;2.50;;;1.25;;
25846;SDS011;13676;50.168;8.568;2023-06-14T14:37:16;1.80;;;1.17;;
25846;SDS011;13676;50.168;8.568;2023-06-14T14:39:41;2.10;;;1.38;;
25846;SDS011;13676;50.168;8.568;2023-06-14T14:42:07;3.13;;;1.50;;
25846;SDS011;13676;50.168;8.568;2023-06-14T14:44:32;2.13;;;1.27;;
25846;SDS011;13676;50.168;8.568;2023-06-14T14:46:58;3.20;;;1.40;;
25846;SDS011;13676;50.168;8.568;2023-06-14T14:49:23;1.73;;;1.30;;
25846;SDS011;13676;50.168;8.568;2023-06-14T14:51:49;2.63;;;1.38;;
25846;SDS011;13676;50.168;8.568;2023-06-14T14:54:14;1.35;;;1.25;;
25846;SDS011;13676;50.168;8.568;2023-06-14T14:56:40;2.05;;;1.30;;
25846;SDS011;13676;50.168;8.568;2023-06-14T14:59:05;2.70;;;1.20;;
25846;SDS011;13676;50.168;8.568;2023-06-14T15:01:31;2.53;;;1.50;;
25846;SDS011;13676;50.168;8.568;2023-06-14T15:03:56;3.40;;;1.30;;
25846;SDS011;13676;50.168;8.568;2023-06-14T15:06:22;2.50;;;1.30;;
25846;SDS011;13676;50.168;8.568;2023-06-14T15:08:47;2.10;;;1.20;;
25846;SDS011;13676;50.168;8.568;2023-06-14T15:11:12;1.67;;;1.20;;
25846;SDS011;13676;50.168;8.568;2023-06-14T15:13:38;1.90;;;1.20;;
25846;SDS011;13676;50.168;8.568;2023-06-14T15:16:04;1.23;;;1.10;;
25846;SDS011;13676;50.168;8.568;2023-06-14T15:18:31;2.47;;;1.20;;